createdAt,value
2023-04-16T00:00:00.544Z,10.90
2023-04-16T00:01:32.331Z,10.60
2023-04-16T00:03:04.387Z,10.90
2023-04-16T00:04:36.279Z,8.50
2023-04-16T00:06:08.027Z,8.00
2023-04-16T00:07:39.798Z,10.00
2023-04-16T00:09:11.660Z,10.00
2023-04-16T00:10:43.647Z,9.60
2023-04-16T00:12:15.726Z,9.10
2023-04-16T00:13:47.470Z,9.90
2023-04-16T00:15:19.167Z,10.10
2023-04-16T00:16:50.915Z,10.30
2023-04-16T00:18:22.830Z,8.20
2023-04-16T00:19:54.526Z,8.00
2023-04-16T00:21:26.612Z,9.10
2023-04-16T00:22:58.702Z,8.30
2023-04-16T00:24:30.387Z,8.50
2023-04-16T00:26:02.057Z,8.60
2023-04-16T00:27:33.840Z,8.60
2023-04-16T00:29:05.559Z,8.30
2023-04-16T00:30:37.324Z,7.70
2023-04-16T00:32:09.107Z,7.90
2023-04-16T00:33:41.183Z,7.50
2023-04-16T00:35:13.089Z,8.50
2023-04-16T00:36:44.796Z,8.10
2023-04-16T00:38:16.640Z,7.10
2023-04-16T00:39:48.529Z,9.40
2023-04-16T00:41:20.725Z,8.50
2023-04-16T00:42:52.426Z,8.60
2023-04-16T00:44:24.204Z,9.20
2023-04-16T00:45:57.589Z,8.50
2023-04-16T00:47:29.549Z,7.20
2023-04-16T00:49:03.917Z,7.60
2023-04-16T00:50:35.702Z,8.40
2023-04-16T00:52:07.921Z,8.60
2023-04-16T00:53:39.680Z,8.00
2023-04-16T00:55:13.422Z,7.70
2023-04-16T00:56:45.416Z,9.50
2023-04-16T00:58:21.408Z,8.10
2023-04-16T00:59:55.871Z,7.60
2023-04-16T01:01:28.093Z,8.20
2023-04-16T01:03:00.420Z,8.50
2023-04-16T01:04:34.030Z,7.50
2023-04-16T01:06:07.725Z,10.40
2023-04-16T01:07:39.763Z,8.40
2023-04-16T01:09:14.294Z,9.30
2023-04-16T01:10:46.485Z,9.90
2023-04-16T01:12:18.295Z,8.50
2023-04-16T01:13:50.021Z,8.70
2023-04-16T01:15:22.449Z,8.00
2023-04-16T01:16:54.112Z,10.00
2023-04-16T01:18:26.909Z,9.30
2023-04-16T01:20:00.578Z,10.00
2023-04-16T01:21:32.435Z,9.80
2023-04-16T01:23:04.092Z,10.10
2023-04-16T01:24:36.439Z,8.70
2023-04-16T01:26:08.284Z,9.70
2023-04-16T01:27:39.966Z,11.00
2023-04-16T01:29:11.671Z,9.20
2023-04-16T01:30:43.370Z,9.90
2023-04-16T01:32:24.850Z,11.20
2023-04-16T01:33:56.598Z,12.10
2023-04-16T01:35:28.882Z,17.50
2023-04-16T01:37:00.900Z,21.60
2023-04-16T01:38:32.671Z,14.60
2023-04-16T01:40:05.162Z,19.40
2023-04-16T01:41:37.590Z,20.90
2023-04-16T01:43:09.374Z,18.80
2023-04-16T01:44:41.079Z,21.50
2023-04-16T01:46:23.818Z,18.30
2023-04-16T01:47:55.903Z,17.40
2023-04-16T01:49:27.627Z,19.70
2023-04-16T01:51:00.559Z,18.20
2023-04-16T01:52:32.221Z,20.20
2023-04-16T01:54:04.204Z,21.80
2023-04-16T01:55:36.181Z,20.20
2023-04-16T01:57:08.074Z,15.00
2023-04-16T01:58:41.303Z,15.60
2023-04-16T02:00:13.309Z,11.60
2023-04-16T02:01:51.427Z,13.20
2023-04-16T02:03:24.929Z,12.30
2023-04-16T02:04:57.913Z,11.90
2023-04-16T02:06:29.744Z,12.10
2023-04-16T02:08:01.584Z,13.00
2023-04-16T02:09:38.318Z,12.70
2023-04-16T02:11:11.523Z,12.30
2023-04-16T02:12:43.429Z,13.60
2023-04-16T02:14:15.338Z,12.90
2023-04-16T02:15:50.342Z,12.60
2023-04-16T02:17:27.616Z,13.00
2023-04-16T02:19:10.502Z,13.60
2023-04-16T02:20:44.762Z,13.90
2023-04-16T02:22:16.867Z,14.30
2023-04-16T02:23:51.571Z,11.60
2023-04-16T02:25:25.821Z,12.70
2023-04-16T02:26:58.608Z,11.80
2023-04-16T02:28:30.412Z,14.40
2023-04-16T02:30:04.256Z,13.40
2023-04-16T02:31:37.831Z,14.10
2023-04-16T02:33:11.938Z,12.10
2023-04-16T02:34:45.313Z,12.70
2023-04-16T02:36:17.557Z,13.60
2023-04-16T02:37:49.416Z,12.40
2023-04-16T02:39:21.244Z,13.40
2023-04-16T02:40:52.878Z,12.90
2023-04-16T02:42:24.622Z,13.60
2023-04-16T02:43:56.752Z,12.00
2023-04-16T02:45:28.543Z,13.60
2023-04-16T02:47:00.350Z,12.60
2023-04-16T02:48:32.263Z,11.90
2023-04-16T02:50:04.407Z,13.80
2023-04-16T02:51:36.227Z,11.40
2023-04-16T02:53:07.962Z,11.90
2023-04-16T02:54:39.678Z,13.80
2023-04-16T02:56:12.727Z,14.60
2023-04-16T02:57:44.390Z,14.00
2023-04-16T02:59:16.069Z,14.80
2023-04-16T03:00:48.124Z,13.30
2023-04-16T03:02:19.828Z,13.90
2023-04-16T03:03:51.591Z,14.80
2023-04-16T03:05:23.379Z,14.10
2023-04-16T03:06:55.708Z,14.70
2023-04-16T03:08:27.541Z,13.40
2023-04-16T03:09:59.258Z,14.00
2023-04-16T03:11:31.006Z,13.10
2023-04-16T03:13:03.016Z,13.40
2023-04-16T03:14:34.672Z,12.20
2023-04-16T03:16:06.921Z,13.50
2023-04-16T03:17:38.672Z,11.50
2023-04-16T03:19:10.490Z,12.30
2023-04-16T03:20:42.338Z,13.80
2023-04-16T03:22:14.282Z,13.60
2023-04-16T03:23:45.927Z,12.90
2023-04-16T03:25:18.195Z,12.60
2023-04-16T03:26:49.970Z,13.80
2023-04-16T03:28:22.651Z,12.80
2023-04-16T03:29:54.405Z,11.40
2023-04-16T03:31:26.164Z,12.70
2023-04-16T03:32:58.169Z,12.40
2023-04-16T03:34:29.849Z,10.60
2023-04-16T03:36:04.401Z,13.10
2023-04-16T03:37:36.176Z,13.50
2023-04-16T03:39:08.040Z,12.40
2023-04-16T03:40:40.870Z,13.50
2023-04-16T03:42:12.579Z,12.60
2023-04-16T03:43:44.590Z,12.60
2023-04-16T03:45:16.591Z,12.60
2023-04-16T03:46:48.598Z,11.30
2023-04-16T03:48:20.345Z,12.50
2023-04-16T03:49:52.312Z,11.40
2023-04-16T03:51:24.851Z,14.30
2023-04-16T03:52:56.852Z,14.40
2023-04-16T03:54:28.753Z,14.10
2023-04-16T03:56:09.899Z,13.80
2023-04-16T03:57:43.999Z,13.80
2023-04-16T03:59:18.173Z,13.40
2023-04-16T04:00:49.888Z,15.20
2023-04-16T04:02:21.862Z,14.30
2023-04-16T04:03:54.013Z,16.40
2023-04-16T04:05:26.009Z,15.70
2023-04-16T04:06:57.648Z,14.40
2023-04-16T04:08:30.701Z,16.50
2023-04-16T04:10:02.481Z,15.90
2023-04-16T04:11:34.681Z,14.20
2023-04-16T04:13:07.301Z,14.20
2023-04-16T04:14:40.044Z,16.00
2023-04-16T04:16:11.980Z,15.60
2023-04-16T04:17:43.814Z,17.00
2023-04-16T04:19:15.630Z,16.50
2023-04-16T04:20:47.585Z,16.50
2023-04-16T04:22:20.557Z,16.10
2023-04-16T04:23:52.859Z,17.00
2023-04-16T04:25:25.819Z,16.20
2023-04-16T04:26:57.564Z,16.90
2023-04-16T04:28:30.698Z,15.90
2023-04-16T04:30:06.583Z,16.10
2023-04-16T04:31:38.393Z,16.00
2023-04-16T04:33:10.204Z,14.30
2023-04-16T04:34:42.794Z,15.20
2023-04-16T04:36:14.593Z,12.90
2023-04-16T04:37:47.096Z,15.20
2023-04-16T04:39:21.902Z,14.70
2023-04-16T04:40:54.020Z,14.70
2023-04-16T04:42:26.228Z,14.90
2023-04-16T04:43:59.094Z,12.40
2023-04-16T04:45:32.124Z,15.30
2023-04-16T04:47:04.720Z,15.00
2023-04-16T04:48:36.367Z,15.40
2023-04-16T04:50:08.659Z,14.20
2023-04-16T04:51:40.541Z,14.00
2023-04-16T04:53:14.626Z,13.50
2023-04-16T04:54:46.803Z,13.40
2023-04-16T04:56:18.439Z,14.40
2023-04-16T04:57:50.447Z,14.10
2023-04-16T04:59:23.790Z,14.80
2023-04-16T05:00:55.513Z,13.50
2023-04-16T05:02:27.402Z,13.20
2023-04-16T05:03:59.180Z,15.40
2023-04-16T05:05:31.128Z,12.40
2023-04-16T05:07:03.088Z,14.20
2023-04-16T05:08:34.748Z,13.50
2023-04-16T05:10:07.496Z,14.40
2023-04-16T05:11:39.356Z,15.20
2023-04-16T05:13:11.091Z,16.30
2023-04-16T05:14:43.030Z,15.00
2023-04-16T05:16:14.730Z,13.80
2023-04-16T05:17:46.435Z,14.20
2023-04-16T05:19:18.119Z,13.80
2023-04-16T05:20:49.806Z,16.20
2023-04-16T05:22:21.573Z,13.40
2023-04-16T05:23:53.913Z,14.20
2023-04-16T05:25:25.682Z,14.50
2023-04-16T05:26:57.741Z,14.70
2023-04-16T05:28:31.144Z,16.30
2023-04-16T05:30:03.575Z,13.80
2023-04-16T05:31:35.342Z,14.10
2023-04-16T05:33:07.071Z,14.10
2023-04-16T05:34:38.718Z,12.70
2023-04-16T05:36:10.417Z,16.60
2023-04-16T05:37:42.098Z,13.80
2023-04-16T05:39:13.827Z,15.00
2023-04-16T05:40:45.800Z,15.60
2023-04-16T05:42:17.629Z,15.40
2023-04-16T05:43:49.335Z,14.00
2023-04-16T05:45:21.459Z,15.10
2023-04-16T05:46:53.233Z,13.90
2023-04-16T05:48:24.971Z,15.20
2023-04-16T05:49:56.615Z,15.50
2023-04-16T05:51:29.331Z,16.00
2023-04-16T05:53:05.768Z,16.10
2023-04-16T05:54:37.440Z,13.70
2023-04-16T05:56:09.552Z,15.10
2023-04-16T05:57:41.301Z,15.50
2023-04-16T05:59:12.979Z,13.10
2023-04-16T06:00:45.317Z,16.10
2023-04-16T06:02:17.076Z,15.70
2023-04-16T06:03:49.305Z,15.10
2023-04-16T06:05:21.305Z,16.20
2023-04-16T06:06:53.044Z,15.10
2023-04-16T06:08:24.784Z,15.00
2023-04-16T06:09:56.529Z,15.20
2023-04-16T06:11:30.670Z,12.50
2023-04-16T06:13:02.448Z,14.20
2023-04-16T06:14:34.059Z,14.60
2023-04-16T06:16:06.463Z,14.80
2023-04-16T06:17:38.240Z,14.00
2023-04-16T06:19:10.180Z,13.90
2023-04-16T06:20:41.978Z,15.50
2023-04-16T06:22:13.990Z,15.90
2023-04-16T06:23:45.777Z,15.60
2023-04-16T06:25:18.321Z,14.90
2023-04-16T06:26:50.034Z,16.70
2023-04-16T06:28:22.156Z,15.90
2023-04-16T06:29:53.891Z,15.70
2023-04-16T06:31:25.823Z,16.40
2023-04-16T06:32:57.662Z,15.80
2023-04-16T06:34:29.736Z,16.20
2023-04-16T06:36:01.437Z,15.30
2023-04-16T06:37:33.064Z,15.30
2023-04-16T06:39:04.981Z,15.40
2023-04-16T06:40:37.531Z,16.30
2023-04-16T06:42:09.217Z,15.20
2023-04-16T06:43:41.168Z,14.90
2023-04-16T06:45:13.725Z,15.30
2023-04-16T06:46:45.584Z,15.90
2023-04-16T06:48:17.237Z,15.20
2023-04-16T06:49:48.906Z,15.50
2023-04-16T06:51:20.715Z,15.60
2023-04-16T06:52:52.989Z,15.20
2023-04-16T06:54:24.645Z,15.80
2023-04-16T06:55:56.444Z,16.50
2023-04-16T06:57:28.146Z,15.50
2023-04-16T06:59:00.911Z,15.40
2023-04-16T07:00:32.700Z,16.50
2023-04-16T07:02:04.495Z,14.70
2023-04-16T07:03:36.712Z,15.00
2023-04-16T07:05:09.076Z,15.70
2023-04-16T07:06:40.782Z,15.30
2023-04-16T07:08:12.454Z,14.00
2023-04-16T07:09:44.160Z,15.00
2023-04-16T07:11:16.328Z,15.60
2023-04-16T07:12:48.087Z,16.20
2023-04-16T07:14:19.910Z,15.50
2023-04-16T07:15:51.594Z,16.10
2023-04-16T07:17:23.366Z,15.40
2023-04-16T07:18:55.161Z,15.70
2023-04-16T07:20:26.830Z,15.90
2023-04-16T07:21:59.942Z,16.80
2023-04-16T07:23:31.687Z,15.80
2023-04-16T07:25:03.902Z,15.40
2023-04-16T07:26:35.601Z,15.50
2023-04-16T07:28:07.388Z,14.90
2023-04-16T07:29:39.144Z,16.00
2023-04-16T07:31:11.146Z,15.90
2023-04-16T07:32:42.976Z,14.60
2023-04-16T07:34:14.712Z,15.90
2023-04-16T07:35:46.469Z,15.30
2023-04-16T07:37:18.120Z,15.10
2023-04-16T07:38:49.731Z,14.20
2023-04-16T07:40:21.477Z,16.00
2023-04-16T07:41:53.156Z,15.00
2023-04-16T07:43:24.893Z,15.50
2023-04-16T07:44:56.725Z,16.10
2023-04-16T07:46:36.106Z,15.50
2023-04-16T07:48:15.461Z,15.20
2023-04-16T07:49:47.155Z,14.70
2023-04-16T07:51:18.855Z,14.70
2023-04-16T07:52:50.480Z,14.80
2023-04-16T07:54:22.210Z,14.50
2023-04-16T07:55:53.877Z,14.00
2023-04-16T07:57:25.738Z,14.80
2023-04-16T07:58:58.351Z,13.30
2023-04-16T08:00:35.361Z,14.50
2023-04-16T08:02:08.986Z,14.60
2023-04-16T08:03:41.042Z,13.50
2023-04-16T08:05:13.371Z,12.50
2023-04-16T08:06:45.386Z,14.40
2023-04-16T08:08:17.154Z,14.40
2023-04-16T08:09:51.478Z,14.60
2023-04-16T08:11:24.021Z,14.30
2023-04-16T08:12:55.715Z,13.90
2023-04-16T08:14:27.452Z,12.90
2023-04-16T08:15:59.140Z,13.50
2023-04-16T08:17:30.975Z,14.20
2023-04-16T08:19:02.688Z,14.90
2023-04-16T08:20:34.394Z,14.20
2023-04-16T08:22:06.675Z,13.90
2023-04-16T08:23:38.383Z,15.00
2023-04-16T08:25:10.518Z,13.90
2023-04-16T08:26:42.147Z,14.50
2023-04-16T08:28:13.763Z,13.60
2023-04-16T08:29:45.491Z,13.20
2023-04-16T08:31:17.356Z,13.60
2023-04-16T08:32:50.310Z,13.30
2023-04-16T08:34:22.587Z,12.70
2023-04-16T08:35:54.215Z,13.30
2023-04-16T08:37:26.582Z,13.90
2023-04-16T08:38:58.283Z,13.30
2023-04-16T08:40:31.604Z,14.30
2023-04-16T08:42:07.036Z,13.40
2023-04-16T08:43:44.360Z,12.60
2023-04-16T08:45:18.426Z,13.80
2023-04-16T08:46:57.201Z,14.10
2023-04-16T08:48:35.147Z,14.00
2023-04-16T08:50:11.557Z,12.90
2023-04-16T08:51:51.175Z,13.70
2023-04-16T08:53:36.788Z,11.50
2023-04-16T08:55:16.246Z,13.60
2023-04-16T08:56:49.322Z,13.90
2023-04-16T08:58:29.242Z,13.80
2023-04-16T09:00:02.092Z,13.20
2023-04-16T09:01:35.286Z,12.90
2023-04-16T09:03:08.896Z,14.30
2023-04-16T09:04:42.733Z,12.60
2023-04-16T09:06:16.843Z,11.10
2023-04-16T09:07:48.913Z,13.10
2023-04-16T09:09:21.996Z,13.90
2023-04-16T09:10:55.588Z,14.30
2023-04-16T09:12:27.808Z,13.30
2023-04-16T09:14:00.969Z,12.70
2023-04-16T09:15:35.440Z,13.50
2023-04-16T09:17:07.527Z,13.90
2023-04-16T09:18:39.401Z,14.40
2023-04-16T09:20:12.425Z,13.10
2023-04-16T09:21:47.547Z,13.80
2023-04-16T09:23:19.213Z,13.70
2023-04-16T09:24:50.874Z,13.50
2023-04-16T09:26:22.750Z,13.90
2023-04-16T09:27:54.409Z,13.80
2023-04-16T09:29:41.206Z,14.00
2023-04-16T09:31:15.069Z,12.60
2023-04-16T09:32:46.722Z,13.80
2023-04-16T09:34:18.391Z,13.20
2023-04-16T09:35:53.014Z,13.20
2023-04-16T09:37:30.328Z,14.40
2023-04-16T09:39:03.928Z,14.00
2023-04-16T09:40:35.803Z,14.20
2023-04-16T09:42:07.856Z,13.70
2023-04-16T09:43:39.475Z,13.90
2023-04-16T09:45:11.605Z,13.40
2023-04-16T09:46:43.270Z,14.50
2023-04-16T09:48:14.918Z,14.80
2023-04-16T09:49:47.207Z,14.90
2023-04-16T09:51:19.103Z,13.40
2023-04-16T09:52:51.566Z,13.30
2023-04-16T09:54:23.316Z,14.20
2023-04-16T09:56:00.365Z,14.50
2023-04-16T09:57:32.171Z,14.30
2023-04-16T09:59:03.875Z,14.60
2023-04-16T10:00:35.777Z,13.80
2023-04-16T10:02:16.543Z,13.50
2023-04-16T10:03:50.808Z,14.40
2023-04-16T10:05:22.773Z,13.80
2023-04-16T10:07:06.775Z,13.30
2023-04-16T10:08:52.900Z,14.20
2023-04-16T10:10:24.776Z,13.80
2023-04-16T10:11:56.483Z,15.00
2023-04-16T10:13:28.222Z,12.90
2023-04-16T10:15:00.127Z,14.50
2023-04-16T10:16:33.064Z,14.50
2023-04-16T10:18:05.892Z,14.80
2023-04-16T10:19:38.075Z,13.90
2023-04-16T10:21:12.630Z,14.30
2023-04-16T10:22:44.938Z,14.50
2023-04-16T10:24:18.234Z,12.90
2023-04-16T10:25:50.591Z,12.00
2023-04-16T10:27:22.830Z,13.10
2023-04-16T10:28:55.483Z,14.00
2023-04-16T10:30:27.987Z,14.20
2023-04-16T10:32:01.143Z,12.90
2023-04-16T10:33:36.509Z,13.30
2023-04-16T10:35:08.653Z,12.60
2023-04-16T10:36:40.642Z,14.60
2023-04-16T10:38:24.867Z,14.40
2023-04-16T10:39:56.598Z,13.90
2023-04-16T10:41:29.033Z,13.80
2023-04-16T10:43:01.574Z,12.30
2023-04-16T10:44:33.745Z,11.80
2023-04-16T10:46:31.787Z,13.60
2023-04-16T10:48:09.938Z,13.70
2023-04-16T10:49:45.156Z,13.30
2023-04-16T10:51:33.568Z,13.00
2023-04-16T10:53:18.766Z,13.20
2023-04-16T10:54:53.040Z,13.10
2023-04-16T10:56:27.565Z,12.70
2023-04-16T10:57:59.249Z,12.80
2023-04-16T10:59:34.917Z,13.00
2023-04-16T11:01:13.274Z,13.60
2023-04-16T11:02:45.190Z,12.80
2023-04-16T11:04:20.068Z,12.00
2023-04-16T11:05:52.126Z,11.70
2023-04-16T11:07:35.127Z,12.30
2023-04-16T11:09:07.269Z,13.40
2023-04-16T11:10:39.548Z,12.40
2023-04-16T11:12:18.517Z,12.50
2023-04-16T11:13:55.796Z,11.90
2023-04-16T11:15:30.901Z,13.20
2023-04-16T11:17:04.029Z,13.00
2023-04-16T11:18:36.511Z,12.50
2023-04-16T11:20:21.052Z,12.30
2023-04-16T11:21:53.071Z,12.10
2023-04-16T11:23:24.869Z,11.50
2023-04-16T11:24:57.268Z,12.40
2023-04-16T11:26:30.773Z,12.20
2023-04-16T11:28:02.990Z,11.70
2023-04-16T11:29:35.222Z,10.90
2023-04-16T11:31:12.509Z,12.40
2023-04-16T11:32:45.268Z,12.10
2023-04-16T11:34:18.713Z,12.60
2023-04-16T11:36:00.216Z,12.60
2023-04-16T11:37:37.060Z,11.80
2023-04-16T11:39:08.917Z,11.90
2023-04-16T11:40:42.456Z,8.70
2023-04-16T11:42:21.263Z,12.40
2023-04-16T11:43:53.000Z,12.10
2023-04-16T11:45:24.738Z,12.90
2023-04-16T11:46:56.456Z,12.60
2023-04-16T11:48:54.012Z,12.50
2023-04-16T11:50:28.761Z,11.60
2023-04-16T11:52:00.401Z,11.60
2023-04-16T11:53:32.375Z,12.90
2023-04-16T11:55:04.894Z,12.90
2023-04-16T11:56:39.831Z,10.30
2023-04-16T11:58:12.978Z,12.30
2023-04-16T12:00:01.790Z,9.90
2023-04-16T12:01:50.915Z,11.40
2023-04-16T12:03:40.538Z,11.40
2023-04-16T12:05:32.724Z,12.00
2023-04-16T12:07:13.464Z,12.40
2023-04-16T12:08:45.282Z,13.20
2023-04-16T12:10:16.930Z,12.80
2023-04-16T12:11:48.632Z,11.30
2023-04-16T12:13:20.621Z,12.40
2023-04-16T12:14:54.695Z,12.70
2023-04-16T12:16:27.252Z,13.30
2023-04-16T12:18:09.439Z,11.20
2023-04-16T12:19:57.793Z,9.60
2023-04-16T12:21:48.003Z,12.00
2023-04-16T12:23:30.784Z,12.80
2023-04-16T12:25:06.057Z,12.10
2023-04-16T12:26:41.282Z,11.70
2023-04-16T12:28:13.788Z,11.40
2023-04-16T12:29:45.659Z,11.90
2023-04-16T12:31:17.409Z,11.60
2023-04-16T12:32:52.539Z,10.40
2023-04-16T12:34:28.949Z,12.80
2023-04-16T12:36:20.001Z,13.70
2023-04-16T12:37:51.654Z,11.50
2023-04-16T12:39:23.296Z,11.00
2023-04-16T12:40:56.983Z,11.50
2023-04-16T12:42:35.561Z,10.80
2023-04-16T12:44:11.983Z,12.60
2023-04-16T12:45:43.679Z,11.90
2023-04-16T12:47:15.664Z,10.40
2023-04-16T12:48:49.693Z,11.10
2023-04-16T12:50:22.313Z,12.10
2023-04-16T12:51:53.958Z,12.60
2023-04-16T12:53:26.068Z,12.40
2023-04-16T12:54:57.732Z,12.60
2023-04-16T12:56:31.198Z,11.30
2023-04-16T12:58:02.813Z,9.50
2023-04-16T12:59:34.455Z,10.70
2023-04-16T13:01:06.195Z,11.10
2023-04-16T13:02:38.065Z,11.10
2023-04-16T13:04:10.293Z,11.30
2023-04-16T13:05:42.504Z,10.90
2023-04-16T13:07:14.207Z,10.80
2023-04-16T13:08:46.071Z,11.40
2023-04-16T13:10:17.991Z,10.00
2023-04-16T13:11:49.712Z,10.70
2023-04-16T13:13:21.368Z,11.60
2023-04-16T13:14:54.256Z,10.70
2023-04-16T13:16:26.123Z,10.60
2023-04-16T13:17:57.872Z,10.60
2023-04-16T13:19:31.020Z,10.80
2023-04-16T13:21:03.271Z,9.80
2023-04-16T13:22:35.387Z,10.10
2023-04-16T13:24:07.271Z,9.70
2023-04-16T13:25:38.962Z,10.00
2023-04-16T13:27:11.288Z,10.50
2023-04-16T13:28:42.960Z,11.20
2023-04-16T13:30:14.930Z,10.60
2023-04-16T13:31:47.195Z,11.10
2023-04-16T13:33:19.542Z,10.30
2023-04-16T13:34:51.232Z,10.60
2023-04-16T13:36:22.868Z,10.60
2023-04-16T13:37:54.565Z,10.90
2023-04-16T13:39:26.329Z,10.20
2023-04-16T13:40:58.018Z,10.60
2023-04-16T13:42:29.693Z,10.10
2023-04-16T13:44:01.323Z,10.80
2023-04-16T13:45:33.722Z,10.70
2023-04-16T13:47:05.552Z,10.60
2023-04-16T13:48:37.251Z,10.10
2023-04-16T13:50:10.319Z,9.70
2023-04-16T13:51:45.003Z,10.20
2023-04-16T13:53:16.694Z,9.90
2023-04-16T13:54:48.326Z,9.20
2023-04-16T13:56:25.166Z,10.30
2023-04-16T13:57:57.014Z,10.20
2023-04-16T13:59:28.939Z,10.30
2023-04-16T14:01:00.644Z,10.60
2023-04-16T14:02:32.666Z,9.90
2023-04-16T14:04:06.404Z,10.70
2023-04-16T14:05:38.645Z,10.60
2023-04-16T14:07:10.511Z,8.70
2023-04-16T14:08:42.250Z,9.90
2023-04-16T14:10:13.915Z,11.10
2023-04-16T14:11:45.876Z,10.60
2023-04-16T14:13:17.530Z,10.30
2023-04-16T14:14:49.224Z,10.80
2023-04-16T14:16:21.000Z,10.70
2023-04-16T14:17:52.949Z,10.80
2023-04-16T14:19:25.269Z,11.20
2023-04-16T14:20:57.614Z,10.80
2023-04-16T14:22:29.261Z,10.40
2023-04-16T14:24:00.948Z,11.00
2023-04-16T14:25:33.684Z,7.20
2023-04-16T14:27:05.350Z,10.10
2023-04-16T14:28:37.159Z,10.00
2023-04-16T14:30:09.357Z,10.30
2023-04-16T14:31:41.526Z,9.70
2023-04-16T14:33:13.226Z,9.70
2023-04-16T14:34:45.135Z,9.10
2023-04-16T14:36:17.004Z,9.20
2023-04-16T14:37:49.519Z,9.30
2023-04-16T14:39:21.494Z,9.60
2023-04-16T14:40:53.188Z,9.40
2023-04-16T14:42:24.914Z,9.40
2023-04-16T14:43:56.622Z,9.10
2023-04-16T14:45:29.985Z,8.90
2023-04-16T14:47:01.727Z,9.10
2023-04-16T14:48:33.433Z,9.40
2023-04-16T14:50:06.455Z,9.00
2023-04-16T14:51:38.187Z,9.00
2023-04-16T14:53:11.937Z,9.10
2023-04-16T14:54:43.685Z,9.20
2023-04-16T14:56:15.453Z,9.20
2023-04-16T14:57:47.175Z,9.20
2023-04-16T14:59:18.869Z,8.90
2023-04-16T15:00:50.805Z,8.70
2023-04-16T15:02:22.828Z,8.90
2023-04-16T15:03:56.561Z,9.10
2023-04-16T15:05:28.334Z,9.00
2023-04-16T15:07:00.224Z,9.70
2023-04-16T15:08:31.927Z,9.20
2023-04-16T15:10:04.308Z,8.90
2023-04-16T15:11:36.087Z,8.80
2023-04-16T15:13:07.733Z,9.30
2023-04-16T15:14:39.361Z,8.00
2023-04-16T15:16:11.562Z,8.50
2023-04-16T15:17:43.789Z,9.10
2023-04-16T15:19:15.802Z,8.70
2023-04-16T15:20:47.463Z,8.80
2023-04-16T15:22:19.372Z,8.80
2023-04-16T15:23:51.459Z,8.70
2023-04-16T15:25:24.176Z,9.10
2023-04-16T15:26:56.172Z,9.50
2023-04-16T15:28:27.942Z,7.90
2023-04-16T15:29:59.904Z,9.00
2023-04-16T15:31:31.783Z,9.40
2023-04-16T15:33:03.662Z,10.20
2023-04-16T15:34:35.300Z,9.90
2023-04-16T15:36:07.198Z,8.50
2023-04-16T15:37:39.337Z,9.10
2023-04-16T15:39:11.298Z,9.50
2023-04-16T15:40:43.312Z,9.60
2023-04-16T15:42:16.582Z,10.30
2023-04-16T15:43:48.260Z,9.40
2023-04-16T15:45:20.077Z,8.90
2023-04-16T15:46:51.686Z,9.00
2023-04-16T15:48:24.745Z,8.40
2023-04-16T15:49:56.422Z,9.10
2023-04-16T15:51:29.318Z,9.90
2023-04-16T15:53:01.097Z,9.80
2023-04-16T15:54:32.824Z,9.30
2023-04-16T15:56:04.727Z,9.00
2023-04-16T15:57:36.748Z,9.00
2023-04-16T15:59:08.602Z,9.90
2023-04-16T16:00:40.515Z,9.60
2023-04-16T16:02:12.340Z,9.90
2023-04-16T16:03:44.528Z,9.10
2023-04-16T16:05:17.029Z,9.50
2023-04-16T16:06:52.776Z,9.60
2023-04-16T16:08:24.567Z,7.40
2023-04-16T16:09:56.255Z,8.90
2023-04-16T16:11:28.019Z,9.10
2023-04-16T16:13:05.188Z,8.60
2023-04-16T16:14:36.985Z,9.30
2023-04-16T16:16:08.780Z,9.30
2023-04-16T16:17:40.886Z,10.20
2023-04-16T16:19:13.189Z,9.30
2023-04-16T16:20:44.881Z,9.00
2023-04-16T16:22:20.363Z,8.80
2023-04-16T16:23:52.072Z,9.30
2023-04-16T16:25:24.029Z,9.60
2023-04-16T16:26:56.771Z,9.30
2023-04-16T16:28:28.516Z,9.50
2023-04-16T16:30:01.063Z,7.70
2023-04-16T16:31:33.067Z,8.40
2023-04-16T16:33:05.020Z,7.80
2023-04-16T16:34:37.330Z,8.30
2023-04-16T16:36:12.724Z,7.80
2023-04-16T16:37:44.491Z,8.40
2023-04-16T16:39:16.408Z,8.80
2023-04-16T16:40:48.133Z,7.70
2023-04-16T16:42:19.762Z,7.80
2023-04-16T16:43:55.707Z,8.30
2023-04-16T16:45:28.518Z,8.80
2023-04-16T16:47:00.458Z,7.40
2023-04-16T16:48:32.339Z,8.10
2023-04-16T16:50:05.337Z,6.80
2023-04-16T16:51:38.046Z,8.10
2023-04-16T16:53:09.811Z,8.10
2023-04-16T16:54:42.701Z,7.20
2023-04-16T16:56:14.451Z,8.10
2023-04-16T16:57:46.214Z,8.30
2023-04-16T16:59:18.051Z,8.10
2023-04-16T17:00:49.911Z,8.00
2023-04-16T17:02:22.875Z,8.20
2023-04-16T17:03:54.782Z,7.50
2023-04-16T17:05:26.658Z,8.50
2023-04-16T17:06:58.484Z,7.70
2023-04-16T17:08:30.359Z,8.20
2023-04-16T17:10:05.267Z,8.80
2023-04-16T17:11:38.422Z,8.90
2023-04-16T17:13:10.471Z,8.90
2023-04-16T17:14:42.226Z,6.30
2023-04-16T17:16:15.408Z,9.10
2023-04-16T17:17:47.277Z,9.00
2023-04-16T17:19:19.210Z,8.80
2023-04-16T17:20:51.262Z,8.70
2023-04-16T17:22:22.908Z,9.10
2023-04-16T17:23:54.603Z,8.40
2023-04-16T17:25:26.503Z,8.60
2023-04-16T17:26:58.506Z,8.80
2023-04-16T17:28:30.374Z,9.20
2023-04-16T17:30:05.301Z,8.20
2023-04-16T17:31:37.082Z,8.60
2023-04-16T17:33:09.008Z,8.80
2023-04-16T17:34:40.913Z,8.30
2023-04-16T17:36:12.810Z,8.20
2023-04-16T17:37:44.618Z,7.30
2023-04-16T17:39:17.332Z,8.50
2023-04-16T17:40:49.134Z,8.00
2023-04-16T17:42:21.064Z,8.40
2023-04-16T17:43:52.833Z,8.30
2023-04-16T17:45:24.581Z,8.50
2023-04-16T17:46:56.828Z,8.70
2023-04-16T17:48:28.500Z,9.20
2023-04-16T17:50:00.483Z,9.40
2023-04-16T17:51:32.620Z,9.90
2023-04-16T17:53:04.322Z,9.40
2023-04-16T17:54:36.254Z,10.00
2023-04-16T17:56:08.254Z,8.50
2023-04-16T17:57:39.933Z,11.70
2023-04-16T17:59:12.262Z,11.20
2023-04-16T18:00:45.711Z,12.50
2023-04-16T18:02:17.609Z,12.40
2023-04-16T18:03:50.042Z,12.80
2023-04-16T18:05:22.730Z,12.80
2023-04-16T18:06:54.592Z,12.70
2023-04-16T18:08:26.871Z,13.40
2023-04-16T18:09:58.656Z,13.30
2023-04-16T18:11:31.243Z,13.70
2023-04-16T18:13:02.946Z,9.90
2023-04-16T18:14:35.823Z,13.20
2023-04-16T18:16:15.045Z,11.60
2023-04-16T18:17:46.971Z,13.80
2023-04-16T18:19:18.898Z,13.90
2023-04-16T18:20:52.479Z,13.50
2023-04-16T18:22:26.255Z,9.30
2023-04-16T18:24:00.884Z,14.10
2023-04-16T18:25:35.251Z,14.40
2023-04-16T18:27:07.373Z,13.80
2023-04-16T18:28:39.169Z,14.00
2023-04-16T18:30:20.057Z,12.00
2023-04-16T18:31:57.463Z,14.30
2023-04-16T18:33:52.613Z,13.60
2023-04-16T18:35:21.199Z,12.50
2023-04-16T18:36:52.878Z,12.70
2023-04-16T18:38:24.630Z,13.10
2023-04-16T18:39:58.044Z,12.10
2023-04-16T18:41:30.953Z,13.00
2023-04-16T18:43:05.969Z,11.30
2023-04-16T18:44:37.786Z,13.50
2023-04-16T18:46:09.538Z,12.20
2023-04-16T18:47:41.663Z,13.10
2023-04-16T18:49:13.592Z,12.30
2023-04-16T18:50:45.627Z,12.90
2023-04-16T18:52:17.312Z,12.40
2023-04-16T18:53:49.152Z,12.70
2023-04-16T18:55:20.919Z,8.10
2023-04-16T18:56:52.674Z,12.30
2023-04-16T18:58:24.295Z,11.80
2023-04-16T18:59:56.041Z,11.90
2023-04-16T19:01:27.932Z,12.50
2023-04-16T19:02:59.675Z,12.10
2023-04-16T19:04:31.539Z,12.50
2023-04-16T19:06:03.421Z,10.30
2023-04-16T19:07:35.382Z,11.10
2023-04-16T19:09:08.399Z,11.10
2023-04-16T19:10:41.859Z,10.70
2023-04-16T19:12:13.521Z,11.30
2023-04-16T19:13:45.462Z,10.00
2023-04-16T19:15:17.199Z,11.00
2023-04-16T19:16:48.924Z,9.20
2023-04-16T19:18:20.539Z,10.70
2023-04-16T19:19:52.291Z,8.30
2023-04-16T19:21:24.034Z,10.60
2023-04-16T19:22:55.804Z,8.80
2023-04-16T19:24:27.479Z,11.10
2023-04-16T19:25:59.212Z,10.30
2023-04-16T19:27:31.210Z,11.20
2023-04-16T19:29:03.448Z,11.40
2023-04-16T19:30:35.286Z,10.40
2023-04-16T19:32:07.164Z,11.20
2023-04-16T19:33:38.964Z,10.60
2023-04-16T19:35:11.326Z,10.10
2023-04-16T19:36:44.408Z,10.30
2023-04-16T19:38:16.896Z,10.00
2023-04-16T19:39:48.656Z,10.80
2023-04-16T19:41:20.684Z,10.00
2023-04-16T19:42:52.396Z,11.30
2023-04-16T19:44:24.105Z,10.60
2023-04-16T19:45:55.752Z,11.50
2023-04-16T19:47:27.514Z,10.90
2023-04-16T19:48:59.279Z,9.70
2023-04-16T19:50:31.016Z,10.40
2023-04-16T19:52:02.925Z,11.60
2023-04-16T19:53:34.716Z,11.00
2023-04-16T19:55:07.302Z,10.00
2023-04-16T19:56:38.973Z,10.70
2023-04-16T19:58:10.891Z,11.20
2023-04-16T19:59:42.675Z,10.90
2023-04-16T20:01:14.475Z,10.60
2023-04-16T20:02:46.305Z,11.00
2023-04-16T20:04:18.449Z,10.90
2023-04-16T20:05:50.373Z,12.00
2023-04-16T20:07:22.105Z,10.20